createdAt,value
2022-08-03T00:02:58.518Z,37.70
2022-08-03T00:09:13.302Z,37.80
2022-08-03T00:15:28.297Z,36.80
2022-08-03T00:21:38.937Z,36.60
2022-08-03T00:27:50.388Z,37.20
2022-08-03T00:34:04.309Z,36.80
2022-08-03T00:40:25.076Z,37.20
2022-08-03T00:46:39.125Z,36.80
2022-08-03T00:52:51.446Z,37.50
2022-08-03T00:59:05.693Z,36.90
2022-08-03T01:05:20.373Z,37.10
2022-08-03T01:11:37.013Z,37.30
2022-08-03T01:17:53.880Z,37.50
2022-08-03T01:24:22.873Z,37.60
2022-08-03T01:30:37.666Z,37.10
2022-08-03T01:36:54.330Z,36.90
2022-08-03T01:43:09.011Z,36.60
2022-08-03T01:49:23.730Z,36.90
2022-08-03T01:55:36.637Z,37.00
2022-08-03T02:02:28.233Z,36.90
2022-08-03T02:08:06.600Z,36.80
2022-08-03T02:14:21.772Z,36.90
2022-08-03T02:20:35.422Z,36.90
2022-08-03T02:26:47.778Z,37.10
2022-08-03T02:33:01.133Z,37.30
2022-08-03T02:39:14.230Z,38.50
2022-08-03T02:45:28.537Z,38.60
2022-08-03T02:51:41.471Z,38.70
2022-08-03T02:57:55.843Z,38.50
2022-08-03T03:04:08.780Z,38.40
2022-08-03T03:10:21.329Z,39.50
2022-08-03T03:16:33.809Z,39.40
2022-08-03T03:22:49.025Z,39.20
2022-08-03T03:29:03.070Z,39.00
2022-08-03T03:35:19.018Z,39.10
2022-08-03T03:41:33.704Z,39.60
2022-08-03T03:47:48.046Z,39.60
2022-08-03T03:54:05.755Z,39.40
2022-08-03T04:00:22.145Z,39.30
2022-08-03T04:06:51.282Z,39.60
2022-08-03T04:13:04.290Z,39.80
2022-08-03T04:19:21.032Z,39.70
2022-08-03T04:25:29.497Z,39.60
2022-08-03T04:31:43.777Z,39.60
2022-08-03T04:37:58.657Z,39.90
2022-08-03T04:44:13.597Z,40.10
2022-08-03T04:50:27.613Z,39.90
2022-08-03T04:56:41.724Z,39.80
2022-08-03T05:02:55.365Z,39.80
2022-08-03T05:09:08.222Z,40.00
2022-08-03T05:15:23.359Z,40.20
2022-08-03T05:21:52.166Z,40.00
2022-08-03T05:27:49.881Z,40.10
2022-08-03T05:34:03.836Z,40.00
2022-08-03T05:40:22.498Z,40.30
2022-08-03T05:46:36.865Z,40.30
2022-08-03T05:52:50.821Z,40.10
2022-08-03T05:59:22.768Z,40.20
2022-08-03T06:05:22.174Z,40.30
2022-08-03T06:11:35.050Z,40.40
2022-08-03T06:17:53.637Z,40.90
2022-08-03T06:24:06.531Z,40.30
2022-08-03T06:30:22.165Z,40.30
2022-08-03T06:36:34.844Z,40.50
2022-08-03T06:42:49.271Z,40.70
2022-08-03T06:49:05.671Z,40.60
2022-08-03T06:55:21.023Z,40.50
2022-08-03T07:01:33.644Z,40.60
2022-08-03T07:07:48.590Z,40.70
2022-08-03T07:14:02.941Z,40.80
2022-08-03T07:20:20.649Z,40.70
2022-08-03T07:26:34.721Z,40.70
2022-08-03T07:32:50.293Z,40.70
2022-08-03T07:39:16.578Z,40.80
2022-08-03T07:45:22.089Z,40.90
2022-08-03T07:51:34.517Z,40.90
2022-08-03T07:57:45.828Z,40.90
2022-08-03T08:04:00.037Z,40.80
2022-08-03T08:10:16.128Z,41.10
2022-08-03T08:16:30.398Z,41.20
2022-08-03T08:22:44.230Z,41.10
2022-08-03T08:28:59.046Z,41.10
2022-08-03T08:35:14.745Z,41.00
2022-08-03T08:41:32.278Z,41.30
2022-08-03T08:47:51.084Z,41.40
2022-08-03T08:54:01.496Z,41.10
2022-08-03T09:00:17.148Z,41.00
2022-08-03T09:06:27.985Z,41.20
2022-08-03T09:12:44.309Z,41.50
2022-08-03T09:18:55.534Z,41.50
2022-08-03T09:25:25.861Z,41.30
2022-08-03T09:31:26.120Z,41.20
2022-08-03T09:38:12.567Z,41.30
2022-08-03T09:43:57.337Z,41.50
2022-08-03T09:50:12.835Z,41.50
2022-08-03T09:56:35.701Z,41.30
2022-08-03T10:02:41.170Z,41.40
2022-08-03T10:08:53.731Z,41.50
2022-08-03T10:15:06.090Z,41.70
2022-08-03T10:21:22.112Z,41.60
2022-08-03T10:27:36.684Z,41.50
2022-08-03T10:33:53.352Z,41.50
2022-08-03T10:40:05.169Z,41.70
2022-08-03T10:46:19.374Z,41.90
2022-08-03T10:59:00.190Z,41.70
2022-08-03T11:05:33.707Z,41.50
2022-08-03T11:11:48.932Z,41.70
2022-08-03T11:18:16.393Z,41.80
2022-08-03T11:25:06.766Z,41.70
2022-08-03T11:31:54.455Z,41.50
2022-08-03T11:38:22.874Z,41.60
2022-08-03T11:44:52.206Z,41.80
2022-08-03T11:51:06.205Z,41.70
2022-08-03T11:57:20.431Z,41.70
2022-08-03T12:03:38.086Z,41.50
2022-08-03T12:09:48.642Z,41.50
2022-08-03T12:16:02.165Z,41.40
2022-08-03T12:22:14.662Z,41.30
2022-08-03T12:28:37.946Z,41.20
2022-08-03T12:34:57.664Z,41.70
2022-08-03T12:41:14.744Z,41.30
2022-08-03T12:47:29.198Z,41.20
2022-08-03T12:53:43.135Z,41.00
2022-08-03T12:59:57.798Z,40.90
2022-08-03T13:06:09.006Z,40.70
2022-08-03T13:12:24.034Z,40.80
2022-08-03T13:18:38.124Z,40.70
2022-08-03T13:24:53.667Z,40.70
2022-08-03T13:31:08.741Z,40.70
2022-08-03T13:37:22.932Z,40.60
2022-08-03T13:43:37.314Z,40.70
2022-08-03T13:50:00.361Z,40.60
2022-08-03T13:56:08.440Z,40.60
2022-08-03T14:02:23.436Z,40.60
2022-08-03T14:08:35.482Z,40.50
2022-08-03T14:14:49.638Z,40.50
2022-08-03T14:21:05.552Z,40.40
2022-08-03T14:27:17.634Z,40.30
2022-08-03T14:33:31.776Z,40.40
2022-08-03T14:40:00.298Z,40.30
2022-08-03T14:45:58.234Z,40.30
2022-08-03T14:52:13.501Z,40.30
2022-08-03T14:58:27.615Z,40.40
2022-08-03T15:04:40.356Z,40.40
2022-08-03T15:10:54.918Z,40.40
2022-08-03T15:17:07.385Z,40.50
2022-08-03T15:23:18.693Z,40.40
2022-08-03T15:30:06.029Z,40.40
2022-08-03T15:35:49.760Z,40.30
2022-08-03T15:42:02.102Z,40.40
2022-08-03T15:48:17.561Z,40.40
2022-08-03T15:54:33.601Z,40.30
2022-08-03T16:00:47.871Z,40.30
2022-08-03T16:07:01.723Z,40.30
2022-08-03T16:13:14.818Z,40.30
2022-08-03T16:19:30.459Z,40.50
2022-08-03T16:25:43.113Z,40.40
2022-08-03T16:31:57.184Z,40.50
2022-08-03T16:38:14.198Z,40.70
2022-08-03T16:44:27.288Z,40.70
2022-08-03T16:50:38.694Z,40.60
2022-08-03T16:56:51.334Z,40.60
2022-08-03T17:03:18.954Z,40.60
2022-08-03T17:09:21.319Z,40.50
2022-08-03T17:16:00.992Z,40.50
2022-08-03T17:21:50.843Z,40.40
2022-08-03T17:28:50.556Z,40.50
2022-08-03T17:34:20.458Z,40.40
2022-08-03T17:40:38.101Z,40.30
2022-08-03T17:46:48.441Z,40.30
2022-08-03T17:53:07.717Z,40.40
2022-08-03T17:59:50.924Z,40.40
2022-08-03T18:12:07.397Z,40.40
2022-08-03T18:18:32.303Z,39.50
2022-08-03T18:24:38.057Z,39.00
2022-08-03T18:30:54.216Z,38.90
2022-08-03T18:37:07.528Z,39.60
2022-08-03T18:43:46.189Z,39.50
2022-08-03T18:49:43.483Z,39.40
2022-08-03T18:56:02.688Z,39.50
2022-08-03T19:02:20.763Z,39.50
2022-08-03T19:08:37.025Z,39.70
2022-08-03T19:14:54.214Z,39.60
2022-08-03T19:21:12.833Z,39.30
2022-08-03T19:27:26.910Z,39.00
2022-08-03T19:33:56.104Z,38.70
2022-08-03T19:39:56.655Z,38.50
2022-08-03T19:46:13.067Z,39.10
2022-08-03T19:52:28.337Z,39.00
2022-08-03T19:58:42.465Z,39.00
2022-08-03T20:04:56.726Z,39.00
2022-08-03T20:11:11.681Z,39.10
2022-08-03T20:17:56.883Z,39.20
2022-08-03T20:23:40.449Z,38.90
2022-08-03T20:30:06.661Z,39.20
2022-08-03T20:36:14.081Z,38.90
2022-08-03T20:42:29.429Z,38.00
2022-08-03T20:48:43.009Z,38.70
2022-08-03T20:54:57.540Z,38.50
2022-08-03T21:01:10.013Z,38.70
2022-08-03T21:07:24.362Z,39.30
2022-08-03T21:12:56.698Z,40.40
2022-08-03T21:13:39.617Z,38.70
2022-08-03T21:19:53.530Z,38.80
2022-08-03T21:26:07.839Z,38.90
2022-08-03T21:32:33.296Z,38.50
2022-08-03T21:38:39.190Z,38.30
2022-08-03T21:44:49.650Z,37.90
2022-08-03T21:51:03.100Z,38.00
2022-08-03T21:57:18.869Z,38.30
2022-08-03T22:03:32.833Z,38.40
2022-08-03T22:09:50.943Z,38.30
2022-08-03T22:16:04.583Z,38.30
2022-08-03T22:22:18.698Z,38.40
2022-08-03T22:28:31.534Z,38.40
2022-08-03T22:34:44.573Z,38.60
2022-08-03T22:40:57.714Z,39.70
2022-08-03T22:47:08.390Z,39.70
2022-08-03T22:53:23.526Z,39.90
2022-08-03T22:59:40.497Z,39.20
2022-08-03T23:06:00.840Z,38.80
2022-08-03T23:12:11.039Z,38.50
2022-08-03T23:18:23.424Z,38.80
2022-08-03T23:24:36.019Z,38.70
2022-08-03T23:30:50.652Z,38.70
2022-08-03T23:37:04.191Z,38.60
2022-08-03T23:43:44.834Z,38.60
2022-08-03T23:49:35.375Z,38.80
2022-08-03T23:55:56.300Z,39.90
